Flinterborg — PHPH — position and weather

sailwx.info

Track history (hours):
 
Tides and Currents Weather Stations Pressure Air Temp Water Temp Dewpoint Dewpoint Depression Visibility Wind Speed Wind Dir Waves Ship Positions

Flinterborg

Last reported at 2019-Feb-19 14:09 UTC. Time now 2019-Feb-20 07:03 UTC.
Position N 55°44' E 020°48'.

Length 111 m; draft 6.4 m.

Type: Ship. MMSI: 245433000.

Date/timePositionNaut miles runAvg speedWind from/ knotsBaromVisibWave heightAir tempDewpointWater temp
2019-Feb-19 14:09N 55°44' E 020°48'210.8
2019-Feb-19 13:58N 55°45' E 020°51'510.5
2019-Feb-19 13:30N 55°44' E 020°60'4 8.7
2019-Feb-19 13:00N 55°43' E 021°07'1 2.5
2019-Feb-19 12:30N 55°42' E 021°08'0 0.0
2019-Feb-19 12:00N 55°42' E 021°08'0 0.0
2019-Feb-19 11:30N 55°42' E 021°08'0 0.0
2019-Feb-19 11:00N 55°42' E 021°08'0 0.0
2019-Feb-19 10:30N 55°42' E 021°08'0 0.0
2019-Feb-19 10:01N 55°42' E 021°08'0 0.0
2019-Feb-19 09:30N 55°42' E 021°08'0 0.0
2019-Feb-19 09:00N 55°42' E 021°08'0 0.0
2019-Feb-19 08:30N 55°42' E 021°08'0 0.0
2019-Feb-19 08:00N 55°42' E 021°08'0 0.0
2019-Feb-19 07:30N 55°42' E 021°08'0 0.0
2019-Feb-19 07:00N 55°42' E 021°08'0 0.0
2019-Feb-19 06:30N 55°42' E 021°08'0 0.0
2019-Feb-19 06:00N 55°42' E 021°08'0 0.0
2019-Feb-19 05:31N 55°42' E 021°08'0 0.0
2019-Feb-19 05:00N 55°42' E 021°08'0 0.0
2019-Feb-19 04:30N 55°42' E 021°08'0 0.0
2019-Feb-19 04:01N 55°42' E 021°08'0 0.0
2019-Feb-19 03:29N 55°42' E 021°08'0 0.0
2019-Feb-19 03:00N 55°42' E 021°08'0 0.0
2019-Feb-19 02:30N 55°42' E 021°08'0 0.0
2019-Feb-19 02:00N 55°42' E 021°08'0 0.0
2019-Feb-19 01:30N 55°42' E 021°08'0 0.0
2019-Feb-19 01:00N 55°42' E 021°08'0 0.0
2019-Feb-19 00:30N 55°42' E 021°08'0 0.0
2019-Feb-19 00:00N 55°42' E 021°08'0 0.0
2019-Feb-18 23:30N 55°42' E 021°08'0 0.0
2019-Feb-18 23:00N 55°42' E 021°08'0 0.0
2019-Feb-18 22:31N 55°42' E 021°08'0 0.0
2019-Feb-18 22:00N 55°42' E 021°08'0 0.0
2019-Feb-18 21:30N 55°42' E 021°08'0 0.0
2019-Feb-18 21:01N 55°42' E 021°08'0 0.0
2019-Feb-18 20:30N 55°42' E 021°08'0 0.0
2019-Feb-18 20:01N 55°42' E 021°08'0 0.0
2019-Feb-18 19:30N 55°42' E 021°08'0 0.0
2019-Feb-18 18:59N 55°42' E 021°08'0 0.0
2019-Feb-18 18:30N 55°42' E 021°08'1 2.9
2019-Feb-18 18:00N 55°43' E 021°07'4 7.7
2019-Feb-18 17:30N 55°44' E 021°00'3 5.1
2019-Feb-18 16:59N 55°43' E 020°56'3 5.5
2019-Feb-18 16:26N 55°43' E 020°50'0 0.0
2019-Feb-18 15:56N 55°43' E 020°50'0 0.0
2019-Feb-18 15:11N 55°43' E 020°50'0 0.0
2019-Feb-18 14:59N 55°43' E 020°50'0 0.0
2019-Feb-18 13:43N 55°43' E 020°50'0 0.0
2019-Feb-18 13:16N 55°43' E 020°50'0 0.1
2019-Feb-18 12:55N 55°43' E 020°50'0 0.0
2019-Feb-18 12:12N 55°43' E 020°50'0 0.1
2019-Feb-18 11:36N 55°43' E 020°50'0 0.0
2019-Feb-18 11:12N 55°43' E 020°50'0 0.0
2019-Feb-18 09:29N 55°43' E 020°50'0 0.0
2019-Feb-18 08:11N 55°43' E 020°50'0 0.0
2019-Feb-18 07:07N 55°43' E 020°50'0 0.0
2019-Feb-18 06:49N 55°43' E 020°50'0 0.0
2019-Feb-18 06:04N 55°43' E 020°50'0 0.0
2019-Feb-18 04:57N 55°43' E 020°50'0 0.0
2019-Feb-18 03:45N 55°43' E 020°50'0 0.0
2019-Feb-18 03:11N 55°43' E 020°50'0 0.0
2019-Feb-18 02:08N 55°43' E 020°50'0 0.0
2019-Feb-17 23:55N 55°43' E 020°50'0 0.0
2019-Feb-17 23:28N 55°43' E 020°50'0 0.2
2019-Feb-17 22:16N 55°43' E 020°50'2 5.7
2019-Feb-17 21:59N 55°44' E 020°50'510.3
2019-Feb-17 21:30N 55°49' E 020°51'22812.1
2019-Feb-17 02:38N 59°36' E 019°60'212.5
2019-Feb-17 02:26N 59°38' E 019°57'512.6
2019-Feb-17 02:00N 59°42' E 019°50'612.7
2019-Feb-17 01:30N 59°47' E 019°41'612.5
2019-Feb-17 01:00N 59°52' E 019°34'612.7
2019-Feb-17 00:30N 59°57' E 019°28'712.6
2019-Feb-16 23:59N 60°02' E 019°18'612.6
2019-Feb-16 23:30N 60°06' E 019°09'712.5
2019-Feb-16 22:58N 60°11' E 019°00'  
2019-Feb-13 15:50N 56°04' E 016°45'411.3
2019-Feb-13 15:29N 56°02' E 016°39'511.5
2019-Feb-13 15:00N 55°59' E 016°31'611.5
2019-Feb-13 14:30N 55°56' E 016°22'611.4
2019-Feb-13 14:00N 55°53' E 016°13'611.6
2019-Feb-13 13:30N 55°50' E 016°04'611.5
2019-Feb-13 13:00N 55°47' E 015°55'611.5
2019-Feb-13 12:30N 55°45' E 015°47'611.4
2019-Feb-13 12:00N 55°42' E 015°38'611.6
2019-Feb-13 11:30N 55°39' E 015°28'611.6
2019-Feb-13 11:00N 55°37' E 015°19'611.7
2019-Feb-13 10:30N 55°34' E 015°10'14211.1
2019-Feb-12 21:49N 54°29' E 011°31'613.0
2019-Feb-12 21:21N 54°32' E 011°21'412.5
2019-Feb-12 21:00N 54°34' E 011°15'611.9
2019-Feb-12 20:30N 54°35' E 011°04'612.1
2019-Feb-12 20:00N 54°34' E 010°54'612.0
2019-Feb-12 19:30N 54°34' E 010°43'612.0
2019-Feb-12 19:00N 54°33' E 010°33'611.9
2019-Feb-12 18:30N 54°31' E 010°24'510.8
2019-Feb-12 18:00N 54°28' E 010°16'611.5
2019-Feb-12 17:30N 54°23' E 010°11'2 4.0
2019-Feb-12 17:00N 54°22' E 010°08'1 1.1
2019-Feb-12 16:30N 54°22' E 010°07'3 5.8
2019-Feb-12 16:00N 54°22' E 010°03'4 7.8
2019-Feb-12 15:30N 54°20' E 009°56'3 6.8
2019-Feb-12 15:00N 54°22' E 009°51'4 7.8
2019-Feb-12 14:30N 54°20' E 009°45'4 7.6
2019-Feb-12 14:00N 54°18' E 009°40'3 6.8
2019-Feb-12 13:30N 54°15' E 009°37'4 7.8
2019-Feb-12 13:00N 54°12' E 009°33'4 8.6
2019-Feb-12 12:30N 54°10' E 009°26'11 7.6
2019-Feb-12 11:03N 54°00' E 009°18'1 8.2
2019-Feb-12 11:00N 53°60' E 009°17'5 8.5
2019-Feb-12 10:26N 53°56' E 009°12'3 3.6
2019-Feb-12 09:29N 53°53' E 009°08'2 2.4
2019-Feb-12 08:37N 53°53' E 009°05'0 1.1
2019-Feb-12 08:26N 53°53' E 009°05'6 8.3
2019-Feb-12 07:42N 53°51' E 008°55'5 9.8
2019-Feb-12 07:11N 53°51' E 008°46'5 9.9
2019-Feb-12 06:42N 53°54' E 008°41'15611.0
2019-Feb-11 16:28N 53°09' E 004°30'10 9.5
2019-Feb-11 15:22N 52°60' E 004°22'6 9.8
2019-Feb-11 14:45N 52°54' E 004°17'4 9.9
2019-Feb-11 14:18N 52°50' E 004°13'1410.0
2019-Feb-11 12:57N 52°41' E 003°58'4 9.8
2019-Feb-11 12:30N 52°37' E 003°53'6 9.9
2019-Feb-11 11:51N 52°33' E 003°46'510.1
2019-Feb-11 11:19N 52°29' E 003°40'710.5
2019-Feb-11 10:40N 52°24' E 003°33'410.7
2019-Feb-11 10:20N 52°21' E 003°29'411.0
2019-Feb-11 09:58N 52°18' E 003°24'5112.3
2019-Feb-11 05:49N 51°39' E 002°30'413.4
2019-Feb-11 05:29N 51°36' E 002°26'713.5
2019-Feb-11 04:59N 51°31' E 002°19'713.4
2019-Feb-11 04:29N 51°25' E 002°12'613.2
2019-Feb-11 04:00N 51°20' E 002°07'612.9
2019-Feb-11 03:31N 51°14' E 002°03'713.7
2019-Feb-11 03:00N 51°11' E 001°54'713.3
2019-Feb-11 02:30N 51°07' E 001°45'713.2
2019-Feb-11 02:00N 51°02' E 001°38'612.8
2019-Feb-11 01:30N 50°57' E 001°32'611.6
2019-Feb-11 01:00N 50°52' E 001°27'611.2
2019-Feb-11 00:30N 50°47' E 001°24'19211.8
2019-Feb-10 08:16N 49°39' W 003°16'  
Track history (hours):
 
Tides and Currents Weather Stations Pressure Air Temp Water Temp Dewpoint Dewpoint Depression Visibility Wind Speed Wind Dir Waves Ship Positions

Flinterborg

Last reported at 2019-Feb-19 14:09 UTC. Time now 2019-Feb-20 07:03 UTC.
Position N 55°44' E 020°48'.

Length 111 m; draft 6.4 m.

Type: Ship. MMSI: 245433000.

Date/timePositionNaut miles runAvg speedWind from/ knotsBaromVisibWave heightAir tempDewpointWater temp
2019-Feb-19 14:09N 55°44' E 020°48'210.8
2019-Feb-19 13:58N 55°45' E 020°51'510.5
2019-Feb-19 13:30N 55°44' E 020°60'4 8.7
2019-Feb-19 13:00N 55°43' E 021°07'1 2.5
2019-Feb-19 12:30N 55°42' E 021°08'0 0.0
2019-Feb-19 12:00N 55°42' E 021°08'0 0.0
2019-Feb-19 11:30N 55°42' E 021°08'0 0.0
2019-Feb-19 11:00N 55°42' E 021°08'0 0.0
2019-Feb-19 10:30N 55°42' E 021°08'0 0.0
2019-Feb-19 10:01N 55°42' E 021°08'0 0.0
2019-Feb-19 09:30N 55°42' E 021°08'0 0.0
2019-Feb-19 09:00N 55°42' E 021°08'0 0.0
2019-Feb-19 08:30N 55°42' E 021°08'0 0.0
2019-Feb-19 08:00N 55°42' E 021°08'0 0.0
2019-Feb-19 07:30N 55°42' E 021°08'0 0.0
2019-Feb-19 07:00N 55°42' E 021°08'0 0.0
2019-Feb-19 06:30N 55°42' E 021°08'0 0.0
2019-Feb-19 06:00N 55°42' E 021°08'0 0.0
2019-Feb-19 05:31N 55°42' E 021°08'0 0.0
2019-Feb-19 05:00N 55°42' E 021°08'0 0.0
2019-Feb-19 04:30N 55°42' E 021°08'0 0.0
2019-Feb-19 04:01N 55°42' E 021°08'0 0.0
2019-Feb-19 03:29N 55°42' E 021°08'0 0.0
2019-Feb-19 03:00N 55°42' E 021°08'0 0.0
2019-Feb-19 02:30N 55°42' E 021°08'0 0.0
2019-Feb-19 02:00N 55°42' E 021°08'0 0.0
2019-Feb-19 01:30N 55°42' E 021°08'0 0.0
2019-Feb-19 01:00N 55°42' E 021°08'0 0.0
2019-Feb-19 00:30N 55°42' E 021°08'0 0.0
2019-Feb-19 00:00N 55°42' E 021°08'0 0.0
2019-Feb-18 23:30N 55°42' E 021°08'0 0.0
2019-Feb-18 23:00N 55°42' E 021°08'0 0.0
2019-Feb-18 22:31N 55°42' E 021°08'0 0.0
2019-Feb-18 22:00N 55°42' E 021°08'0 0.0
2019-Feb-18 21:30N 55°42' E 021°08'0 0.0
2019-Feb-18 21:01N 55°42' E 021°08'0 0.0
2019-Feb-18 20:30N 55°42' E 021°08'0 0.0
2019-Feb-18 20:01N 55°42' E 021°08'0 0.0
2019-Feb-18 19:30N 55°42' E 021°08'0 0.0
2019-Feb-18 18:59N 55°42' E 021°08'0 0.0
2019-Feb-18 18:30N 55°42' E 021°08'1 2.9
2019-Feb-18 18:00N 55°43' E 021°07'4 7.7
2019-Feb-18 17:30N 55°44' E 021°00'3 5.1
2019-Feb-18 16:59N 55°43' E 020°56'3 5.5
2019-Feb-18 16:26N 55°43' E 020°50'0 0.0
2019-Feb-18 15:56N 55°43' E 020°50'0 0.0
2019-Feb-18 15:11N 55°43' E 020°50'0 0.0
2019-Feb-18 14:59N 55°43' E 020°50'0 0.0
2019-Feb-18 13:43N 55°43' E 020°50'0 0.0
2019-Feb-18 13:16N 55°43' E 020°50'0 0.1
2019-Feb-18 12:55N 55°43' E 020°50'0 0.0
2019-Feb-18 12:12N 55°43' E 020°50'0 0.1
2019-Feb-18 11:36N 55°43' E 020°50'0 0.0
2019-Feb-18 11:12N 55°43' E 020°50'0 0.0
2019-Feb-18 09:29N 55°43' E 020°50'0 0.0
2019-Feb-18 08:11N 55°43' E 020°50'0 0.0
2019-Feb-18 07:07N 55°43' E 020°50'0 0.0
2019-Feb-18 06:49N 55°43' E 020°50'0 0.0
2019-Feb-18 06:04N 55°43' E 020°50'0 0.0
2019-Feb-18 04:57N 55°43' E 020°50'0 0.0
2019-Feb-18 03:45N 55°43' E 020°50'0 0.0
2019-Feb-18 03:11N 55°43' E 020°50'0 0.0
2019-Feb-18 02:08N 55°43' E 020°50'0 0.0
2019-Feb-17 23:55N 55°43' E 020°50'0 0.0
2019-Feb-17 23:28N 55°43' E 020°50'0 0.2
2019-Feb-17 22:16N 55°43' E 020°50'2 5.7
2019-Feb-17 21:59N 55°44' E 020°50'510.3
2019-Feb-17 21:30N 55°49' E 020°51'22812.1
2019-Feb-17 02:38N 59°36' E 019°60'212.5
2019-Feb-17 02:26N 59°38' E 019°57'512.6
2019-Feb-17 02:00N 59°42' E 019°50'612.7
2019-Feb-17 01:30N 59°47' E 019°41'612.5
2019-Feb-17 01:00N 59°52' E 019°34'612.7
2019-Feb-17 00:30N 59°57' E 019°28'712.6
2019-Feb-16 23:59N 60°02' E 019°18'612.6
2019-Feb-16 23:30N 60°06' E 019°09'712.5
2019-Feb-16 22:58N 60°11' E 019°00'  
2019-Feb-13 15:50N 56°04' E 016°45'411.3
2019-Feb-13 15:29N 56°02' E 016°39'511.5
2019-Feb-13 15:00N 55°59' E 016°31'611.5
2019-Feb-13 14:30N 55°56' E 016°22'611.4
2019-Feb-13 14:00N 55°53' E 016°13'611.6
2019-Feb-13 13:30N 55°50' E 016°04'611.5
2019-Feb-13 13:00N 55°47' E 015°55'611.5
2019-Feb-13 12:30N 55°45' E 015°47'611.4
2019-Feb-13 12:00N 55°42' E 015°38'611.6
2019-Feb-13 11:30N 55°39' E 015°28'611.6
2019-Feb-13 11:00N 55°37' E 015°19'611.7
2019-Feb-13 10:30N 55°34' E 015°10'14211.1
2019-Feb-12 21:49N 54°29' E 011°31'613.0
2019-Feb-12 21:21N 54°32' E 011°21'412.5
2019-Feb-12 21:00N 54°34' E 011°15'611.9
2019-Feb-12 20:30N 54°35' E 011°04'612.1
2019-Feb-12 20:00N 54°34' E 010°54'612.0
2019-Feb-12 19:30N 54°34' E 010°43'612.0
2019-Feb-12 19:00N 54°33' E 010°33'611.9
2019-Feb-12 18:30N 54°31' E 010°24'510.8
2019-Feb-12 18:00N 54°28' E 010°16'611.5
2019-Feb-12 17:30N 54°23' E 010°11'2 4.0
2019-Feb-12 17:00N 54°22' E 010°08'1 1.1
2019-Feb-12 16:30N 54°22' E 010°07'3 5.8
2019-Feb-12 16:00N 54°22' E 010°03'4 7.8
2019-Feb-12 15:30N 54°20' E 009°56'3 6.8
2019-Feb-12 15:00N 54°22' E 009°51'4 7.8
2019-Feb-12 14:30N 54°20' E 009°45'4 7.6
2019-Feb-12 14:00N 54°18' E 009°40'3 6.8
2019-Feb-12 13:30N 54°15' E 009°37'4 7.8
2019-Feb-12 13:00N 54°12' E 009°33'4 8.6
2019-Feb-12 12:30N 54°10' E 009°26'11 7.6
2019-Feb-12 11:03N 54°00' E 009°18'1 8.2
2019-Feb-12 11:00N 53°60' E 009°17'5 8.5
2019-Feb-12 10:26N 53°56' E 009°12'3 3.6
2019-Feb-12 09:29N 53°53' E 009°08'2 2.4
2019-Feb-12 08:37N 53°53' E 009°05'0 1.1
2019-Feb-12 08:26N 53°53' E 009°05'6 8.3
2019-Feb-12 07:42N 53°51' E 008°55'5 9.8
2019-Feb-12 07:11N 53°51' E 008°46'5 9.9
2019-Feb-12 06:42N 53°54' E 008°41'15611.0
2019-Feb-11 16:28N 53°09' E 004°30'10 9.5
2019-Feb-11 15:22N 52°60' E 004°22'6 9.8
2019-Feb-11 14:45N 52°54' E 004°17'4 9.9
2019-Feb-11 14:18N 52°50' E 004°13'1410.0
2019-Feb-11 12:57N 52°41' E 003°58'4 9.8
2019-Feb-11 12:30N 52°37' E 003°53'6 9.9
2019-Feb-11 11:51N 52°33' E 003°46'510.1
2019-Feb-11 11:19N 52°29' E 003°40'710.5
2019-Feb-11 10:40N 52°24' E 003°33'410.7
2019-Feb-11 10:20N 52°21' E 003°29'411.0
2019-Feb-11 09:58N 52°18' E 003°24'5112.3
2019-Feb-11 05:49N 51°39' E 002°30'413.4
2019-Feb-11 05:29N 51°36' E 002°26'713.5
2019-Feb-11 04:59N 51°31' E 002°19'713.4
2019-Feb-11 04:29N 51°25' E 002°12'613.2
2019-Feb-11 04:00N 51°20' E 002°07'612.9
2019-Feb-11 03:31N 51°14' E 002°03'713.7
2019-Feb-11 03:00N 51°11' E 001°54'713.3
2019-Feb-11 02:30N 51°07' E 001°45'713.2
2019-Feb-11 02:00N 51°02' E 001°38'612.8
2019-Feb-11 01:30N 50°57' E 001°32'611.6
2019-Feb-11 01:00N 50°52' E 001°27'611.2
2019-Feb-11 00:30N 50°47' E 001°24'19211.8
2019-Feb-10 08:16N 49°39' W 003°16'  

Dump ship's entire track history